createdAt,value
2019-04-30T00:01:36.353Z,2.00
2019-04-30T00:04:40.229Z,1.63
2019-04-30T00:07:10.291Z,1.43
2019-04-30T00:09:37.786Z,1.37
2019-04-30T00:12:06.175Z,1.93
2019-04-30T00:14:39.952Z,2.50
2019-04-30T00:17:06.323Z,3.23
2019-04-30T00:19:35.934Z,1.90
2019-04-30T00:22:05.712Z,2.43
2019-04-30T00:24:35.526Z,5.27
2019-04-30T00:27:05.118Z,3.37
2019-04-30T00:29:35.539Z,1.10
2019-04-30T00:32:05.020Z,1.20
2019-04-30T00:34:35.941Z,1.27
2019-04-30T00:37:07.336Z,1.10
2019-04-30T00:39:35.585Z,1.53
2019-04-30T00:42:05.022Z,1.97
2019-04-30T00:44:35.597Z,1.90
2019-04-30T00:47:08.154Z,1.80
2019-04-30T00:49:35.416Z,3.43
2019-04-30T00:52:05.145Z,1.50
2019-04-30T00:54:35.152Z,1.30
2019-04-30T00:57:07.387Z,2.13
2019-04-30T00:59:35.094Z,1.93
2019-04-30T01:02:19.982Z,2.20
2019-04-30T01:04:47.326Z,1.63
2019-04-30T01:07:16.156Z,1.77
2019-04-30T01:09:49.447Z,1.43
2019-04-30T01:12:17.373Z,1.97
2019-04-30T01:14:44.758Z,1.90
2019-04-30T01:17:13.218Z,1.90
2019-04-30T01:19:45.846Z,2.47
2019-04-30T01:22:12.022Z,1.97
2019-04-30T01:24:40.691Z,1.93
2019-04-30T01:27:10.554Z,1.43
2019-04-30T01:29:44.104Z,3.30
2019-04-30T01:32:10.391Z,1.83
2019-04-30T01:34:39.609Z,1.63
2019-04-30T01:37:08.792Z,4.80
2019-04-30T01:39:39.015Z,2.47
2019-04-30T01:42:10.996Z,1.27
2019-04-30T01:44:39.102Z,1.20
2019-04-30T01:47:08.624Z,2.13
2019-04-30T01:49:42.919Z,3.47
2019-04-30T01:52:07.051Z,1.50
2019-04-30T01:54:35.718Z,3.33
2019-04-30T01:57:34.791Z,1.80
2019-04-30T02:00:20.610Z,2.10
2019-04-30T02:02:49.547Z,3.47
2019-04-30T02:05:18.869Z,1.70
2019-04-30T02:07:48.666Z,1.37
2019-04-30T02:10:18.640Z,2.13
2019-04-30T02:12:49.179Z,2.40
2019-04-30T02:15:19.073Z,5.17
2019-04-30T02:17:50.261Z,1.10
2019-04-30T02:20:18.600Z,3.93
2019-04-30T02:22:48.624Z,1.57
2019-04-30T02:25:17.217Z,1.80
2019-04-30T02:27:45.533Z,1.30
2019-04-30T02:30:13.977Z,2.43
2019-04-30T02:32:42.707Z,3.27
2019-04-30T02:35:36.084Z,1.37
2019-04-30T02:38:15.035Z,2.03
2019-04-30T02:40:44.169Z,3.03
2019-04-30T02:43:13.539Z,2.97
2019-04-30T02:45:42.540Z,1.90
2019-04-30T02:48:12.020Z,2.90
2019-04-30T02:50:41.970Z,1.67
2019-04-30T02:53:29.306Z,3.43
2019-04-30T02:55:59.467Z,2.03
2019-04-30T02:58:29.381Z,2.80
2019-04-30T03:01:00.064Z,1.83
2019-04-30T03:03:29.810Z,2.87
2019-04-30T03:05:59.597Z,5.23
2019-04-30T03:08:29.811Z,3.00
2019-04-30T03:10:59.912Z,3.63
2019-04-30T03:13:29.945Z,1.70
2019-04-30T03:15:59.365Z,1.53
2019-04-30T03:18:33.040Z,5.03
2019-04-30T03:21:09.843Z,2.80
2019-04-30T03:23:39.208Z,1.90
2019-04-30T03:26:12.566Z,3.30
2019-04-30T03:28:39.712Z,2.23
2019-04-30T03:31:12.448Z,2.13
2019-04-30T03:33:42.519Z,3.27
2019-04-30T03:36:12.561Z,2.20
2019-04-30T03:38:39.600Z,4.60
2019-04-30T03:41:09.755Z,2.90
2019-04-30T03:43:40.046Z,1.60
2019-04-30T03:46:10.094Z,1.67
2019-04-30T03:48:39.663Z,4.17
2019-04-30T03:51:10.566Z,1.90
2019-04-30T03:53:39.734Z,3.53
2019-04-30T03:56:09.501Z,5.17
2019-04-30T03:58:39.614Z,2.97
2019-04-30T04:01:24.489Z,1.87
2019-04-30T04:04:10.970Z,2.10
2019-04-30T04:06:43.059Z,3.30
2019-04-30T04:09:30.063Z,2.47
2019-04-30T04:12:20.209Z,3.80
2019-04-30T04:14:47.437Z,2.20
2019-04-30T04:17:15.774Z,2.13
2019-04-30T04:19:44.083Z,3.57
2019-04-30T04:22:12.435Z,4.37
2019-04-30T04:24:40.810Z,5.37
2019-04-30T04:27:09.697Z,2.37
2019-04-30T04:29:40.323Z,2.93
2019-04-30T04:32:10.543Z,3.50
2019-04-30T04:34:40.096Z,3.07
2019-04-30T04:37:10.098Z,4.63
2019-04-30T04:39:38.922Z,2.00
2019-04-30T04:42:10.139Z,2.20
2019-04-30T04:44:39.885Z,3.93
2019-04-30T04:47:09.909Z,2.33
2019-04-30T04:49:39.877Z,2.80
2019-04-30T04:52:10.288Z,4.20
2019-04-30T04:54:40.041Z,4.63
2019-04-30T04:57:17.033Z,2.43
2019-04-30T04:59:42.542Z,4.13
2019-04-30T05:02:35.479Z,4.37
2019-04-30T05:05:04.423Z,3.03
2019-04-30T05:07:33.337Z,2.60
2019-04-30T05:10:02.091Z,2.87
2019-04-30T05:12:31.298Z,2.57
2019-04-30T05:14:59.967Z,3.43
2019-04-30T05:17:31.673Z,2.83
2019-04-30T05:19:59.558Z,4.30
2019-04-30T05:22:29.375Z,5.67
2019-04-30T05:24:58.958Z,2.50
2019-04-30T05:27:27.857Z,3.87
2019-04-30T05:29:56.491Z,3.67
2019-04-30T05:32:25.118Z,2.83
2019-04-30T05:34:53.422Z,4.07
2019-04-30T05:37:22.625Z,3.57
2019-04-30T05:39:51.605Z,5.83
2019-04-30T05:42:20.541Z,2.90
2019-04-30T05:44:49.819Z,5.07
2019-04-30T05:47:19.569Z,3.00
2019-04-30T05:49:49.132Z,2.67
2019-04-30T05:52:19.892Z,3.73
2019-04-30T05:54:48.923Z,5.97
2019-04-30T05:57:19.614Z,4.37
2019-04-30T05:59:48.755Z,5.17
2019-04-30T06:02:19.341Z,5.90
2019-04-30T06:04:48.924Z,4.50
2019-04-30T06:07:18.846Z,4.90
2019-04-30T06:09:54.129Z,4.73
2019-04-30T06:12:39.281Z,3.83
2019-04-30T06:15:29.056Z,3.10
2019-04-30T06:18:01.050Z,2.20
2019-04-30T06:20:28.814Z,2.87
2019-04-30T06:22:59.541Z,4.80
2019-04-30T06:25:33.666Z,7.00
2019-04-30T06:27:59.205Z,4.07
2019-04-30T06:30:29.730Z,4.47
2019-04-30T06:32:59.546Z,3.57
2019-04-30T06:35:29.393Z,6.90
2019-04-30T06:37:58.982Z,3.10
2019-04-30T06:40:29.292Z,4.50
2019-04-30T06:43:00.792Z,5.00
2019-04-30T06:45:30.670Z,3.63
2019-04-30T06:48:00.835Z,5.67
2019-04-30T06:50:29.858Z,5.50
2019-04-30T06:53:01.404Z,2.60
2019-04-30T06:55:30.833Z,3.10
2019-04-30T06:58:11.396Z,2.60
2019-04-30T07:00:40.165Z,5.10
2019-04-30T07:03:09.587Z,2.70
2019-04-30T07:05:39.101Z,3.50
2019-04-30T07:08:36.367Z,3.03
2019-04-30T07:11:32.402Z,3.30
2019-04-30T07:14:00.715Z,4.20
2019-04-30T07:16:29.849Z,8.37
2019-04-30T07:18:58.708Z,3.30
2019-04-30T07:21:29.167Z,4.23
2019-04-30T07:23:57.006Z,9.40
2019-04-30T07:26:25.369Z,2.67
2019-04-30T07:28:55.222Z,5.80
2019-04-30T07:31:23.799Z,3.50
2019-04-30T07:33:53.881Z,3.03
2019-04-30T07:36:22.311Z,7.23
2019-04-30T07:38:56.154Z,2.83
2019-04-30T07:41:20.656Z,5.07
2019-04-30T07:43:49.345Z,2.30
2019-04-30T07:46:19.892Z,2.73
2019-04-30T07:48:50.103Z,3.67
2019-04-30T07:51:21.040Z,3.67
2019-04-30T07:53:49.661Z,3.17
2019-04-30T07:56:25.841Z,4.17
2019-04-30T07:58:50.274Z,3.77
2019-04-30T08:01:19.589Z,4.03
2019-04-30T08:04:02.687Z,4.40
2019-04-30T08:06:31.728Z,5.07
2019-04-30T08:09:01.081Z,4.30
2019-04-30T08:11:34.389Z,2.60
2019-04-30T08:14:00.273Z,3.17
2019-04-30T08:16:28.954Z,4.10
2019-04-30T08:18:59.032Z,5.70
2019-04-30T08:21:28.808Z,3.77
2019-04-30T08:23:59.345Z,4.00
2019-04-30T08:26:28.696Z,4.50
2019-04-30T08:28:57.205Z,6.77
2019-04-30T08:31:25.617Z,5.57
2019-04-30T08:33:53.966Z,4.03
2019-04-30T08:36:22.332Z,7.73
2019-04-30T08:38:50.773Z,9.90
2019-04-30T08:41:19.436Z,8.00
2019-04-30T08:43:49.702Z,8.57
2019-04-30T08:46:19.222Z,6.60
2019-04-30T08:48:51.690Z,10.77
2019-04-30T08:51:19.114Z,8.80
2019-04-30T08:53:48.682Z,9.73
2019-04-30T08:56:21.706Z,9.13
2019-04-30T08:58:49.092Z,9.70
2019-04-30T09:01:19.365Z,11.67
2019-04-30T09:03:50.932Z,9.77
2019-04-30T09:06:25.949Z,11.23
2019-04-30T09:08:59.305Z,9.60
2019-04-30T09:11:35.491Z,9.47
2019-04-30T09:13:58.662Z,11.20
2019-04-30T09:16:29.351Z,10.97
2019-04-30T09:18:59.389Z,10.17
2019-04-30T09:21:29.853Z,10.30
2019-04-30T09:23:59.418Z,16.63
2019-04-30T09:26:29.161Z,12.87
2019-04-30T09:28:59.277Z,14.00
2019-04-30T09:31:29.642Z,13.20
2019-04-30T09:34:00.984Z,12.30
2019-04-30T09:36:29.476Z,11.17
2019-04-30T09:38:58.737Z,12.03
2019-04-30T09:41:28.854Z,9.70
2019-04-30T09:43:59.609Z,14.13
2019-04-30T09:46:29.978Z,9.43
2019-04-30T09:48:59.789Z,10.93
2019-04-30T09:51:30.505Z,11.83
2019-04-30T09:54:02.831Z,15.03
2019-04-30T09:56:30.230Z,12.40
2019-04-30T09:58:59.355Z,9.10
2019-04-30T10:01:28.099Z,9.30
2019-04-30T10:03:59.872Z,8.97
2019-04-30T10:06:38.998Z,10.67
2019-04-30T10:08:59.630Z,9.73
2019-04-30T10:11:49.915Z,13.10
2019-04-30T10:14:18.702Z,9.73
2019-04-30T10:17:09.623Z,9.87
2019-04-30T10:19:39.354Z,12.40
2019-04-30T10:22:09.022Z,9.73
2019-04-30T10:24:39.353Z,8.33
2019-04-30T10:27:12.953Z,7.97
2019-04-30T10:29:39.542Z,10.13
2019-04-30T10:32:09.646Z,12.27
2019-04-30T10:34:38.658Z,8.93
2019-04-30T10:37:08.987Z,7.47
2019-04-30T10:39:38.991Z,6.37
2019-04-30T10:42:08.114Z,8.17
2019-04-30T10:44:37.182Z,7.90
2019-04-30T10:47:06.268Z,7.87
2019-04-30T10:49:34.925Z,9.00
2019-04-30T10:52:03.557Z,7.97
2019-04-30T10:54:32.470Z,7.50
2019-04-30T10:57:01.600Z,9.67
2019-04-30T10:59:30.251Z,11.47
2019-04-30T11:01:59.456Z,6.23
2019-04-30T11:04:28.883Z,7.60
2019-04-30T11:07:00.140Z,7.43
2019-04-30T11:09:31.023Z,7.83
2019-04-30T11:12:02.867Z,8.60
2019-04-30T11:14:30.728Z,7.80
2019-04-30T11:17:00.026Z,5.97
2019-04-30T11:19:29.739Z,5.57
2019-04-30T11:21:59.152Z,6.53
2019-04-30T11:24:36.399Z,6.43
2019-04-30T11:26:59.912Z,5.57
2019-04-30T11:29:30.785Z,6.37
2019-04-30T11:32:04.675Z,7.90
2019-04-30T11:34:34.142Z,6.37
2019-04-30T11:37:02.801Z,6.10
2019-04-30T11:39:31.634Z,4.30
2019-04-30T11:42:00.298Z,9.53
2019-04-30T11:44:31.476Z,4.73
2019-04-30T11:47:33.002Z,5.07
2019-04-30T11:50:02.261Z,7.80
2019-04-30T11:52:31.083Z,5.67
2019-04-30T11:55:00.203Z,6.93
2019-04-30T11:57:29.797Z,5.80
2019-04-30T11:59:59.243Z,7.00
2019-04-30T12:02:39.292Z,6.10
2019-04-30T12:05:08.974Z,5.63
2019-04-30T12:07:59.850Z,5.53
2019-04-30T12:10:35.722Z,4.33
2019-04-30T12:13:04.546Z,4.53
2019-04-30T12:15:33.382Z,4.53
2019-04-30T12:18:02.178Z,4.30
2019-04-30T12:20:33.586Z,3.67
2019-04-30T12:23:01.415Z,3.23
2019-04-30T12:25:30.460Z,4.83
2019-04-30T12:27:59.640Z,3.87
2019-04-30T12:30:28.995Z,7.80
2019-04-30T12:32:59.049Z,5.43
2019-04-30T12:35:28.059Z,3.30
2019-04-30T12:37:58.763Z,3.47
2019-04-30T12:40:30.048Z,3.10
2019-04-30T12:42:59.774Z,3.50
2019-04-30T12:45:29.413Z,5.47
2019-04-30T12:48:02.317Z,6.53
2019-04-30T12:50:45.724Z,3.20
2019-04-30T12:53:20.486Z,4.10
2019-04-30T12:56:14.331Z,3.90
2019-04-30T12:58:43.092Z,2.93
2019-04-30T13:01:11.993Z,3.57
2019-04-30T13:03:40.746Z,5.17
2019-04-30T13:06:11.013Z,3.13
2019-04-30T13:08:40.911Z,4.50
2019-04-30T13:11:12.963Z,2.90
2019-04-30T13:13:41.736Z,3.50
2019-04-30T13:16:11.186Z,3.83
2019-04-30T13:18:39.875Z,3.37
2019-04-30T13:21:08.681Z,2.27
2019-04-30T13:23:37.314Z,2.97
2019-04-30T13:26:06.226Z,3.60
2019-04-30T13:28:46.266Z,4.20
2019-04-30T13:31:15.585Z,3.20
2019-04-30T13:33:50.663Z,4.33
2019-04-30T13:36:19.818Z,8.83
2019-04-30T13:38:53.762Z,3.93
2019-04-30T13:41:45.825Z,2.70
2019-04-30T13:44:16.515Z,3.23
2019-04-30T13:46:50.759Z,2.90
2019-04-30T13:49:19.525Z,2.33
2019-04-30T13:51:48.626Z,3.93
2019-04-30T13:54:17.378Z,2.63
2019-04-30T13:56:46.290Z,3.07
2019-04-30T13:59:15.035Z,3.90
2019-04-30T14:01:43.670Z,4.50
2019-04-30T14:04:30.182Z,4.50
2019-04-30T14:07:16.819Z,7.03
2019-04-30T14:09:45.664Z,4.27
2019-04-30T14:12:14.395Z,3.07
2019-04-30T14:14:43.313Z,6.03
2019-04-30T14:17:12.438Z,3.00
2019-04-30T14:19:41.122Z,4.27
2019-04-30T14:22:10.119Z,4.33
2019-04-30T14:24:39.524Z,2.97
2019-04-30T14:27:08.984Z,3.37
2019-04-30T14:29:39.586Z,3.63
2019-04-30T14:32:08.721Z,3.53
2019-04-30T14:34:39.522Z,4.13
2019-04-30T14:37:08.802Z,4.23
2019-04-30T14:39:37.793Z,2.80
2019-04-30T14:42:10.392Z,2.87
2019-04-30T14:44:39.853Z,4.00
2019-04-30T14:47:26.774Z,2.60
2019-04-30T14:50:05.803Z,3.43
2019-04-30T14:52:40.303Z,4.53
2019-04-30T14:55:27.066Z,3.93
2019-04-30T14:58:29.294Z,4.73
2019-04-30T15:01:05.437Z,2.97
2019-04-30T15:03:34.461Z,3.27
2019-04-30T15:06:03.294Z,4.13
2019-04-30T15:08:32.708Z,3.97
2019-04-30T15:11:01.597Z,2.90
2019-04-30T15:13:30.878Z,2.97
2019-04-30T15:15:59.677Z,5.50
2019-04-30T15:18:29.090Z,3.80
2019-04-30T15:20:59.446Z,3.37
2019-04-30T15:23:59.342Z,4.03
2019-04-30T15:26:28.774Z,3.30
2019-04-30T15:28:59.926Z,7.17
2019-04-30T15:31:29.675Z,3.07
2019-04-30T15:34:13.006Z,2.93
2019-04-30T15:36:42.137Z,3.17
2019-04-30T15:39:20.348Z,5.20
2019-04-30T15:41:49.111Z,3.77
2019-04-30T15:44:17.992Z,2.93
2019-04-30T15:46:46.884Z,4.97
2019-04-30T15:49:15.981Z,2.90
2019-04-30T15:51:44.639Z,3.13
2019-04-30T15:54:13.639Z,5.30
2019-04-30T15:56:43.879Z,4.83
2019-04-30T15:59:47.289Z,3.63
2019-04-30T16:02:53.346Z,3.20
2019-04-30T16:05:24.533Z,5.17
2019-04-30T16:08:21.514Z,2.80
2019-04-30T16:11:29.398Z,3.70
2019-04-30T16:14:20.225Z,3.87
2019-04-30T16:17:14.230Z,4.37
2019-04-30T16:19:42.902Z,3.10
2019-04-30T16:22:11.769Z,3.70
2019-04-30T16:24:40.829Z,5.03
2019-04-30T16:27:10.057Z,3.03
2019-04-30T16:29:40.763Z,3.30
2019-04-30T16:32:09.368Z,4.20
2019-04-30T16:34:38.870Z,4.83
2019-04-30T16:37:08.235Z,5.23
2019-04-30T16:39:36.900Z,4.00
2019-04-30T16:42:05.716Z,3.20
2019-04-30T16:44:34.614Z,5.60
2019-04-30T16:47:13.052Z,3.90
2019-04-30T16:49:33.796Z,4.73
2019-04-30T16:52:02.817Z,3.73
2019-04-30T16:54:31.514Z,4.03
2019-04-30T16:57:04.094Z,3.63
2019-04-30T16:59:36.284Z,4.63
2019-04-30T17:02:05.607Z,2.67
2019-04-30T17:04:56.166Z,3.20
2019-04-30T17:07:50.650Z,3.47
2019-04-30T17:10:50.302Z,3.80
2019-04-30T17:13:43.430Z,3.00
2019-04-30T17:16:22.949Z,4.37
2019-04-30T17:18:51.670Z,3.30
2019-04-30T17:21:20.790Z,3.20
2019-04-30T17:23:50.948Z,5.03
2019-04-30T17:26:19.981Z,3.10
2019-04-30T17:28:49.966Z,3.10
2019-04-30T17:31:18.871Z,5.40
2019-04-30T17:33:47.803Z,5.97
2019-04-30T17:36:18.674Z,4.63
2019-04-30T17:38:47.434Z,4.07
2019-04-30T17:41:16.310Z,3.63
2019-04-30T17:43:45.486Z,2.97
2019-04-30T17:46:14.655Z,3.80
2019-04-30T17:48:43.749Z,3.30
2019-04-30T17:51:12.680Z,3.60
2019-04-30T17:54:00.879Z,4.80
2019-04-30T17:56:29.809Z,3.27
2019-04-30T17:58:58.834Z,3.43
2019-04-30T18:01:28.466Z,2.83
2019-04-30T18:03:58.792Z,3.27
2019-04-30T18:06:27.626Z,4.60
2019-04-30T18:08:56.646Z,5.03
2019-04-30T18:11:25.881Z,8.73
2019-04-30T18:13:54.782Z,5.33
2019-04-30T18:16:23.562Z,6.70
2019-04-30T18:18:59.237Z,5.90
2019-04-30T18:21:36.227Z,5.33
2019-04-30T18:24:30.121Z,4.50
2019-04-30T18:27:21.239Z,5.23
2019-04-30T18:29:50.619Z,3.50
2019-04-30T18:32:20.583Z,5.90
2019-04-30T18:34:49.823Z,4.77
2019-04-30T18:37:18.908Z,5.63
2019-04-30T18:39:48.678Z,7.87
2019-04-30T18:42:19.356Z,6.23
2019-04-30T18:44:47.942Z,4.30
2019-04-30T18:47:18.779Z,5.03
2019-04-30T18:49:49.369Z,3.90
2019-04-30T18:52:18.838Z,6.83
2019-04-30T18:54:49.505Z,8.40
2019-04-30T18:57:18.178Z,9.33
2019-04-30T18:59:46.827Z,4.53
2019-04-30T19:02:15.470Z,4.43
2019-04-30T19:04:44.674Z,7.33
2019-04-30T19:07:27.818Z,4.83
2019-04-30T19:10:18.322Z,7.97
2019-04-30T19:13:06.429Z,6.30
2019-04-30T19:16:22.413Z,4.43
2019-04-30T19:18:51.366Z,6.27
2019-04-30T19:21:20.502Z,6.40
2019-04-30T19:23:49.433Z,4.77
2019-04-30T19:26:19.048Z,5.50
2019-04-30T19:28:49.368Z,7.70
2019-04-30T19:31:19.897Z,5.07
2019-04-30T19:33:48.980Z,9.10
2019-04-30T19:36:20.684Z,5.13
2019-04-30T19:38:48.521Z,6.20
2019-04-30T19:41:18.953Z,6.87
2019-04-30T19:43:50.003Z,5.73
2019-04-30T19:46:18.924Z,6.67
2019-04-30T19:48:50.457Z,7.47
2019-04-30T19:51:19.790Z,6.10
2019-04-30T19:53:49.069Z,6.30
2019-04-30T19:56:20.489Z,9.67
2019-04-30T19:58:59.244Z,9.07
2019-04-30T20:01:18.754Z,6.83
2019-04-30T20:03:47.395Z,7.60
2019-04-30T20:06:16.406Z,9.47
2019-04-30T20:08:45.070Z,7.03
2019-04-30T20:11:13.690Z,9.03
2019-04-30T20:13:42.478Z,6.77
2019-04-30T20:16:11.446Z,7.27
2019-04-30T20:18:40.233Z,7.70
2019-04-30T20:21:13.165Z,8.23
2019-04-30T20:23:42.072Z,8.87
2019-04-30T20:26:11.102Z,10.63
2019-04-30T20:28:42.397Z,8.90
2019-04-30T20:31:11.522Z,8.67
2019-04-30T20:33:40.660Z,9.77
2019-04-30T20:36:09.680Z,10.70
2019-04-30T20:38:56.301Z,7.97
2019-04-30T20:41:25.673Z,11.40
2019-04-30T20:43:54.469Z,8.77
2019-04-30T20:46:32.129Z,8.87
2019-04-30T20:48:53.909Z,8.77
2019-04-30T20:51:22.827Z,9.50
2019-04-30T20:53:51.955Z,8.83
2019-04-30T20:56:20.996Z,7.90
2019-04-30T20:58:58.015Z,10.67
2019-04-30T21:01:20.307Z,8.97
2019-04-30T21:03:49.066Z,10.43
2019-04-30T21:06:19.632Z,6.50
2019-04-30T21:08:48.118Z,10.67
2019-04-30T21:11:16.774Z,10.77
2019-04-30T21:13:45.907Z,11.70
2019-04-30T21:16:14.260Z,8.00
2019-04-30T21:18:43.055Z,9.47
2019-04-30T21:21:12.272Z,8.20
2019-04-30T21:23:41.198Z,9.57
2019-04-30T21:26:10.328Z,9.00
2019-04-30T21:28:39.306Z,11.43
2019-04-30T21:31:25.883Z,10.53
2019-04-30T21:34:00.306Z,10.73
2019-04-30T21:36:28.879Z,10.50
2019-04-30T21:38:59.051Z,8.37
2019-04-30T21:41:29.733Z,14.80
2019-04-30T21:43:58.318Z,10.10
2019-04-30T21:46:29.107Z,10.70
2019-04-30T21:48:58.713Z,9.73
2019-04-30T21:51:27.399Z,10.00
2019-04-30T21:53:56.011Z,9.33
2019-04-30T21:56:24.642Z,11.67
2019-04-30T21:58:53.855Z,13.97
2019-04-30T22:01:24.230Z,10.63
2019-04-30T22:03:53.044Z,9.63
2019-04-30T22:06:21.774Z,9.03
2019-04-30T22:08:50.858Z,8.87
2019-04-30T22:11:19.960Z,10.17
2019-04-30T22:13:49.431Z,9.97
2019-04-30T22:16:20.405Z,11.77
2019-04-30T22:18:49.259Z,10.93
2019-04-30T22:21:17.874Z,12.73
2019-04-30T22:23:46.908Z,11.20
2019-04-30T22:26:15.588Z,7.40
2019-04-30T22:28:44.410Z,8.47
2019-04-30T22:31:13.402Z,8.70
2019-04-30T22:33:42.442Z,9.20
2019-04-30T22:36:33.194Z,8.57
2019-04-30T22:39:23.711Z,12.27
2019-04-30T22:41:53.954Z,10.37
2019-04-30T22:44:22.992Z,8.67
2019-04-30T22:46:51.633Z,10.60
2019-04-30T22:49:20.683Z,8.80
2019-04-30T22:51:49.494Z,8.77
2019-04-30T22:54:18.513Z,10.57
2019-04-30T22:56:47.446Z,11.37
2019-04-30T22:59:16.181Z,8.30
2019-04-30T23:01:55.386Z,11.00
2019-04-30T23:04:32.968Z,12.03
2019-04-30T23:07:02.336Z,10.93
2019-04-30T23:09:30.986Z,9.63
2019-04-30T23:11:59.645Z,10.97
2019-04-30T23:14:28.640Z,9.50
2019-04-30T23:16:58.359Z,12.67
2019-04-30T23:19:27.122Z,9.97
2019-04-30T23:21:55.747Z,11.20
2019-04-30T23:24:24.760Z,8.60
2019-04-30T23:26:53.409Z,9.57
2019-04-30T23:29:22.060Z,10.23
2019-04-30T23:31:50.967Z,10.03
2019-04-30T23:34:19.714Z,7.27
2019-04-30T23:36:48.567Z,12.23
2019-04-30T23:39:17.511Z,7.83
2019-04-30T23:41:46.784Z,10.30
2019-04-30T23:44:15.814Z,13.77
2019-04-30T23:46:44.662Z,9.40
2019-04-30T23:49:13.586Z,12.60
2019-04-30T23:51:42.347Z,8.73
2019-04-30T23:54:10.954Z,10.30
2019-04-30T23:56:39.896Z,13.00
2019-04-30T23:59:08.630Z,11.83
